sensor_id;sensor_type;location;lat;lon;timestamp;P1;durP1;ratioP1;P2;durP2;ratioP2
357;SDS011;167;47.558;7.602;2023-12-29T00:01:19;9.63;;;8.73;;
357;SDS011;167;47.558;7.602;2023-12-29T00:03:45;9.40;;;8.70;;
357;SDS011;167;47.558;7.602;2023-12-29T00:06:11;9.47;;;8.77;;
357;SDS011;167;47.558;7.602;2023-12-29T00:08:37;9.17;;;8.47;;
357;SDS011;167;47.558;7.602;2023-12-29T00:11:03;8.87;;;8.27;;
357;SDS011;167;47.558;7.602;2023-12-29T00:13:29;9.50;;;8.70;;
357;SDS011;167;47.558;7.602;2023-12-29T00:15:55;9.10;;;8.33;;
357;SDS011;167;47.558;7.602;2023-12-29T00:18:21;8.13;;;7.33;;
357;SDS011;167;47.558;7.602;2023-12-29T00:20:49;8.63;;;8.00;;
357;SDS011;167;47.558;7.602;2023-12-29T00:23:15;8.20;;;7.60;;
357;SDS011;167;47.558;7.602;2023-12-29T00:25:41;8.60;;;7.80;;
357;SDS011;167;47.558;7.602;2023-12-29T00:28:07;8.00;;;7.37;;
357;SDS011;167;47.558;7.602;2023-12-29T00:30:33;8.60;;;7.80;;
357;SDS011;167;47.558;7.602;2023-12-29T00:33:00;8.07;;;7.47;;
357;SDS011;167;47.558;7.602;2023-12-29T00:35:26;8.33;;;7.50;;
357;SDS011;167;47.558;7.602;2023-12-29T00:37:52;8.97;;;8.20;;
357;SDS011;167;47.558;7.602;2023-12-29T00:40:18;9.43;;;8.83;;
357;SDS011;167;47.558;7.602;2023-12-29T00:42:44;8.17;;;7.47;;
357;SDS011;167;47.558;7.602;2023-12-29T00:45:10;9.73;;;8.93;;
357;SDS011;167;47.558;7.602;2023-12-29T00:47:36;9.97;;;8.70;;
357;SDS011;167;47.558;7.602;2023-12-29T00:50:02;10.17;;;9.30;;
357;SDS011;167;47.558;7.602;2023-12-29T00:52:29;9.33;;;8.50;;
357;SDS011;167;47.558;7.602;2023-12-29T00:54:55;9.57;;;8.77;;
357;SDS011;167;47.558;7.602;2023-12-29T00:57:20;10.07;;;9.17;;
357;SDS011;167;47.558;7.602;2023-12-29T00:59:47;9.70;;;8.90;;
357;SDS011;167;47.558;7.602;2023-12-29T01:02:13;8.87;;;8.17;;
357;SDS011;167;47.558;7.602;2023-12-29T01:04:39;9.67;;;9.07;;
357;SDS011;167;47.558;7.602;2023-12-29T01:07:05;9.07;;;8.37;;
357;SDS011;167;47.558;7.602;2023-12-29T01:09:31;8.47;;;7.87;;
357;SDS011;167;47.558;7.602;2023-12-29T01:11:57;10.03;;;9.20;;
357;SDS011;167;47.558;7.602;2023-12-29T01:14:23;9.80;;;8.97;;
357;SDS011;167;47.558;7.602;2023-12-29T01:16:49;9.60;;;8.80;;
357;SDS011;167;47.558;7.602;2023-12-29T01:19:15;8.10;;;7.50;;
357;SDS011;167;47.558;7.602;2023-12-29T01:21:41;8.60;;;7.90;;
357;SDS011;167;47.558;7.602;2023-12-29T01:24:07;8.93;;;8.00;;
357;SDS011;167;47.558;7.602;2023-12-29T01:26:37;8.87;;;8.17;;
357;SDS011;167;47.558;7.602;2023-12-29T01:29:03;9.10;;;8.50;;
357;SDS011;167;47.558;7.602;2023-12-29T01:31:29;8.37;;;7.67;;
357;SDS011;167;47.558;7.602;2023-12-29T01:33:56;9.27;;;8.57;;
357;SDS011;167;47.558;7.602;2023-12-29T01:36:22;8.10;;;7.50;;
357;SDS011;167;47.558;7.602;2023-12-29T01:38:48;8.33;;;7.83;;
357;SDS011;167;47.558;7.602;2023-12-29T01:41:14;8.17;;;7.53;;
357;SDS011;167;47.558;7.602;2023-12-29T01:44:40;9.07;;;8.37;;
357;SDS011;167;47.558;7.602;2023-12-29T01:46:35;10.37;;;9.37;;
357;SDS011;167;47.558;7.602;2023-12-29T01:49:01;9.00;;;8.30;;
357;SDS011;167;47.558;7.602;2023-12-29T01:51:27;9.23;;;8.43;;
357;SDS011;167;47.558;7.602;2023-12-29T01:53:55;8.63;;;7.97;;
357;SDS011;167;47.558;7.602;2023-12-29T01:56:22;9.20;;;8.40;;
357;SDS011;167;47.558;7.602;2023-12-29T01:58:49;8.73;;;8.03;;
357;SDS011;167;47.558;7.602;2023-12-29T02:01:15;9.67;;;8.87;;
357;SDS011;167;47.558;7.602;2023-12-29T02:03:42;8.33;;;7.73;;
357;SDS011;167;47.558;7.602;2023-12-29T02:06:08;8.97;;;8.27;;
357;SDS011;167;47.558;7.602;2023-12-29T02:08:39;7.73;;;7.23;;
357;SDS011;167;47.558;7.602;2023-12-29T02:11:06;8.70;;;8.10;;
357;SDS011;167;47.558;7.602;2023-12-29T02:13:32;9.63;;;8.37;;
357;SDS011;167;47.558;7.602;2023-12-29T02:16:00;8.90;;;8.20;;
357;SDS011;167;47.558;7.602;2023-12-29T02:18:28;8.97;;;8.37;;
357;SDS011;167;47.558;7.602;2023-12-29T02:20:55;7.83;;;7.20;;
357;SDS011;167;47.558;7.602;2023-12-29T02:23:21;8.27;;;7.67;;
357;SDS011;167;47.558;7.602;2023-12-29T02:25:47;9.20;;;8.23;;
357;SDS011;167;47.558;7.602;2023-12-29T02:28:20;8.73;;;7.90;;
357;SDS011;167;47.558;7.602;2023-12-29T02:33:16;8.50;;;7.63;;
357;SDS011;167;47.558;7.602;2023-12-29T02:35:43;7.10;;;6.60;;
357;SDS011;167;47.558;7.602;2023-12-29T02:38:10;7.97;;;7.33;;
357;SDS011;167;47.558;7.602;2023-12-29T02:40:37;9.90;;;9.10;;
357;SDS011;167;47.558;7.602;2023-12-29T02:43:03;8.37;;;7.60;;
357;SDS011;167;47.558;7.602;2023-12-29T02:45:29;7.80;;;7.17;;
357;SDS011;167;47.558;7.602;2023-12-29T02:47:55;7.87;;;7.37;;
357;SDS011;167;47.558;7.602;2023-12-29T02:50:21;8.00;;;7.40;;
357;SDS011;167;47.558;7.602;2023-12-29T02:52:47;8.80;;;8.07;;
357;SDS011;167;47.558;7.602;2023-12-29T02:55:13;9.33;;;8.43;;
357;SDS011;167;47.558;7.602;2023-12-29T02:57:39;8.43;;;7.60;;
357;SDS011;167;47.558;7.602;2023-12-29T03:00:05;10.30;;;8.77;;
357;SDS011;167;47.558;7.602;2023-12-29T03:02:31;8.37;;;7.67;;
357;SDS011;167;47.558;7.602;2023-12-29T03:04:58;9.33;;;8.47;;
357;SDS011;167;47.558;7.602;2023-12-29T03:07:24;8.33;;;7.40;;
357;SDS011;167;47.558;7.602;2023-12-29T03:09:50;8.20;;;7.60;;
357;SDS011;167;47.558;7.602;2023-12-29T03:12:16;8.93;;;8.23;;
357;SDS011;167;47.558;7.602;2023-12-29T03:14:42;8.80;;;8.10;;
357;SDS011;167;47.558;7.602;2023-12-29T03:17:08;9.37;;;8.33;;
357;SDS011;167;47.558;7.602;2023-12-29T03:19:34;8.80;;;8.07;;
357;SDS011;167;47.558;7.602;2023-12-29T03:22:00;8.53;;;7.83;;
357;SDS011;167;47.558;7.602;2023-12-29T03:24:27;9.00;;;8.27;;
357;SDS011;167;47.558;7.602;2023-12-29T03:26:53;8.33;;;7.73;;
357;SDS011;167;47.558;7.602;2023-12-29T03:29:19;8.67;;;7.97;;
357;SDS011;167;47.558;7.602;2023-12-29T03:31:45;8.40;;;7.80;;
357;SDS011;167;47.558;7.602;2023-12-29T03:34:11;8.40;;;7.80;;
357;SDS011;167;47.558;7.602;2023-12-29T03:36:37;9.83;;;9.13;;
357;SDS011;167;47.558;7.602;2023-12-29T03:39:03;8.47;;;7.87;;
357;SDS011;167;47.558;7.602;2023-12-29T03:41:29;8.50;;;7.80;;
357;SDS011;167;47.558;7.602;2023-12-29T03:43:55;8.77;;;7.97;;
357;SDS011;167;47.558;7.602;2023-12-29T03:46:22;7.73;;;7.03;;
357;SDS011;167;47.558;7.602;2023-12-29T03:48:48;8.30;;;7.60;;
357;SDS011;167;47.558;7.602;2023-12-29T03:51:14;7.60;;;7.10;;
357;SDS011;167;47.558;7.602;2023-12-29T03:53:41;7.77;;;7.27;;
357;SDS011;167;47.558;7.602;2023-12-29T03:56:16;7.60;;;7.00;;
357;SDS011;167;47.558;7.602;2023-12-29T03:58:43;6.83;;;6.40;;
357;SDS011;167;47.558;7.602;2023-12-29T04:01:15;7.73;;;7.13;;
357;SDS011;167;47.558;7.602;2023-12-29T04:03:42;6.90;;;6.40;;
357;SDS011;167;47.558;7.602;2023-12-29T04:06:08;7.07;;;6.40;;
357;SDS011;167;47.558;7.602;2023-12-29T04:08:34;6.87;;;6.37;;
357;SDS011;167;47.558;7.602;2023-12-29T04:11:01;7.10;;;6.57;;
357;SDS011;167;47.558;7.602;2023-12-29T04:13:27;6.40;;;6.00;;
357;SDS011;167;47.558;7.602;2023-12-29T04:15:53;7.20;;;6.60;;
357;SDS011;167;47.558;7.602;2023-12-29T04:18:20;7.47;;;6.77;;
357;SDS011;167;47.558;7.602;2023-12-29T04:20:46;7.40;;;6.90;;
357;SDS011;167;47.558;7.602;2023-12-29T04:23:12;7.90;;;7.37;;
357;SDS011;167;47.558;7.602;2023-12-29T04:25:38;7.60;;;7.00;;
357;SDS011;167;47.558;7.602;2023-12-29T04:28:05;8.43;;;7.67;;
357;SDS011;167;47.558;7.602;2023-12-29T04:30:31;7.63;;;7.13;;
357;SDS011;167;47.558;7.602;2023-12-29T04:32:57;7.20;;;6.70;;
357;SDS011;167;47.558;7.602;2023-12-29T04:35:23;7.70;;;7.10;;
357;SDS011;167;47.558;7.602;2023-12-29T04:37:49;7.30;;;6.70;;
357;SDS011;167;47.558;7.602;2023-12-29T04:40:16;7.23;;;6.03;;
357;SDS011;167;47.558;7.602;2023-12-29T04:42:42;7.50;;;6.80;;
357;SDS011;167;47.558;7.602;2023-12-29T04:45:08;7.30;;;6.80;;
357;SDS011;167;47.558;7.602;2023-12-29T04:47:35;7.77;;;7.13;;
357;SDS011;167;47.558;7.602;2023-12-29T04:50:01;7.33;;;6.60;;
357;SDS011;167;47.558;7.602;2023-12-29T04:52:27;6.50;;;5.90;;
357;SDS011;167;47.558;7.602;2023-12-29T04:54:53;7.17;;;6.67;;
357;SDS011;167;47.558;7.602;2023-12-29T04:57:19;8.70;;;7.73;;
357;SDS011;167;47.558;7.602;2023-12-29T04:59:45;7.30;;;6.70;;
357;SDS011;167;47.558;7.602;2023-12-29T05:02:11;8.87;;;8.07;;
357;SDS011;167;47.558;7.602;2023-12-29T05:04:37;8.40;;;7.70;;
357;SDS011;167;47.558;7.602;2023-12-29T05:07:05;8.97;;;8.27;;
357;SDS011;167;47.558;7.602;2023-12-29T05:09:31;8.77;;;8.07;;
357;SDS011;167;47.558;7.602;2023-12-29T05:11:57;9.60;;;8.80;;
357;SDS011;167;47.558;7.602;2023-12-29T05:14:23;8.47;;;7.77;;
357;SDS011;167;47.558;7.602;2023-12-29T05:16:49;7.67;;;7.17;;
357;SDS011;167;47.558;7.602;2023-12-29T05:19:15;8.63;;;7.93;;
357;SDS011;167;47.558;7.602;2023-12-29T05:21:41;8.77;;;8.00;;
357;SDS011;167;47.558;7.602;2023-12-29T05:24:07;9.00;;;8.30;;
357;SDS011;167;47.558;7.602;2023-12-29T05:26:33;10.03;;;9.07;;
357;SDS011;167;47.558;7.602;2023-12-29T05:28:59;11.27;;;10.27;;
357;SDS011;167;47.558;7.602;2023-12-29T05:31:25;11.37;;;10.47;;
357;SDS011;167;47.558;7.602;2023-12-29T05:33:51;11.10;;;10.20;;
357;SDS011;167;47.558;7.602;2023-12-29T05:36:18;12.60;;;11.37;;
357;SDS011;167;47.558;7.602;2023-12-29T05:38:45;10.67;;;9.77;;
357;SDS011;167;47.558;7.602;2023-12-29T05:41:15;12.60;;;11.50;;
357;SDS011;167;47.558;7.602;2023-12-29T05:43:41;11.87;;;10.73;;
357;SDS011;167;47.558;7.602;2023-12-29T05:46:10;11.60;;;10.60;;
357;SDS011;167;47.558;7.602;2023-12-29T05:48:39;12.43;;;11.33;;
357;SDS011;167;47.558;7.602;2023-12-29T05:51:07;12.70;;;11.60;;
357;SDS011;167;47.558;7.602;2023-12-29T05:53:34;11.33;;;10.33;;
357;SDS011;167;47.558;7.602;2023-12-29T05:56:00;11.70;;;10.67;;
357;SDS011;167;47.558;7.602;2023-12-29T05:58:26;12.10;;;11.13;;
357;SDS011;167;47.558;7.602;2023-12-29T06:00:52;16.53;;;11.13;;
357;SDS011;167;47.558;7.602;2023-12-29T06:03:18;13.87;;;12.63;;
357;SDS011;167;47.558;7.602;2023-12-29T06:05:44;12.50;;;11.50;;
357;SDS011;167;47.558;7.602;2023-12-29T06:08:10;13.07;;;11.87;;
357;SDS011;167;47.558;7.602;2023-12-29T06:10:36;14.40;;;13.23;;
357;SDS011;167;47.558;7.602;2023-12-29T06:13:02;14.03;;;12.73;;
357;SDS011;167;47.558;7.602;2023-12-29T06:15:28;11.43;;;10.53;;
357;SDS011;167;47.558;7.602;2023-12-29T06:17:54;12.43;;;11.00;;
357;SDS011;167;47.558;7.602;2023-12-29T06:20:20;11.93;;;10.93;;
357;SDS011;167;47.558;7.602;2023-12-29T06:22:46;12.80;;;11.60;;
357;SDS011;167;47.558;7.602;2023-12-29T06:25:12;10.97;;;10.17;;
357;SDS011;167;47.558;7.602;2023-12-29T06:27:38;11.00;;;10.00;;
357;SDS011;167;47.558;7.602;2023-12-29T06:30:06;12.07;;;11.07;;
357;SDS011;167;47.558;7.602;2023-12-29T06:32:32;11.03;;;10.20;;
357;SDS011;167;47.558;7.602;2023-12-29T06:34:58;11.83;;;10.67;;
357;SDS011;167;47.558;7.602;2023-12-29T06:37:24;11.90;;;11.00;;
357;SDS011;167;47.558;7.602;2023-12-29T06:39:50;12.13;;;11.03;;
357;SDS011;167;47.558;7.602;2023-12-29T06:42:16;12.07;;;11.07;;
357;SDS011;167;47.558;7.602;2023-12-29T06:44:42;12.63;;;11.47;;
357;SDS011;167;47.558;7.602;2023-12-29T06:47:08;11.73;;;10.70;;
357;SDS011;167;47.558;7.602;2023-12-29T06:49:34;11.07;;;10.23;;
357;SDS011;167;47.558;7.602;2023-12-29T06:52:00;10.87;;;10.07;;
357;SDS011;167;47.558;7.602;2023-12-29T06:54:26;11.70;;;10.73;;
357;SDS011;167;47.558;7.602;2023-12-29T06:56:52;10.70;;;9.70;;
357;SDS011;167;47.558;7.602;2023-12-29T06:59:18;10.73;;;9.73;;
357;SDS011;167;47.558;7.602;2023-12-29T07:01:45;10.97;;;10.10;;
357;SDS011;167;47.558;7.602;2023-12-29T07:04:11;10.20;;;9.40;;
357;SDS011;167;47.558;7.602;2023-12-29T07:06:37;11.80;;;10.80;;
357;SDS011;167;47.558;7.602;2023-12-29T07:09:03;10.43;;;9.60;;
357;SDS011;167;47.558;7.602;2023-12-29T07:11:29;11.67;;;10.73;;
357;SDS011;167;47.558;7.602;2023-12-29T07:13:56;10.60;;;9.50;;
357;SDS011;167;47.558;7.602;2023-12-29T07:16:22;10.60;;;9.60;;
357;SDS011;167;47.558;7.602;2023-12-29T07:18:48;9.50;;;8.63;;
357;SDS011;167;47.558;7.602;2023-12-29T07:21:14;9.90;;;9.00;;
357;SDS011;167;47.558;7.602;2023-12-29T07:23:41;9.50;;;8.70;;
357;SDS011;167;47.558;7.602;2023-12-29T07:26:07;9.40;;;8.60;;
357;SDS011;167;47.558;7.602;2023-12-29T07:28:33;10.13;;;9.23;;
357;SDS011;167;47.558;7.602;2023-12-29T07:30:59;10.87;;;9.90;;
357;SDS011;167;47.558;7.602;2023-12-29T07:33:26;9.30;;;8.47;;
357;SDS011;167;47.558;7.602;2023-12-29T07:35:52;10.70;;;9.80;;
357;SDS011;167;47.558;7.602;2023-12-29T07:38:18;9.60;;;8.70;;
357;SDS011;167;47.558;7.602;2023-12-29T07:40:44;11.37;;;10.37;;
357;SDS011;167;47.558;7.602;2023-12-29T07:43:10;9.63;;;8.93;;
357;SDS011;167;47.558;7.602;2023-12-29T07:45:36;9.60;;;8.83;;
357;SDS011;167;47.558;7.602;2023-12-29T07:48:02;10.33;;;9.47;;
357;SDS011;167;47.558;7.602;2023-12-29T07:50:29;10.50;;;9.50;;
357;SDS011;167;47.558;7.602;2023-12-29T07:52:55;10.37;;;9.40;;
357;SDS011;167;47.558;7.602;2023-12-29T07:55:21;10.70;;;9.70;;
357;SDS011;167;47.558;7.602;2023-12-29T07:57:47;10.90;;;10.00;;
357;SDS011;167;47.558;7.602;2023-12-29T08:00:14;10.80;;;9.80;;
357;SDS011;167;47.558;7.602;2023-12-29T08:02:40;10.17;;;9.37;;
357;SDS011;167;47.558;7.602;2023-12-29T08:05:06;10.83;;;9.50;;
357;SDS011;167;47.558;7.602;2023-12-29T08:07:36;11.63;;;10.43;;
357;SDS011;167;47.558;7.602;2023-12-29T08:10:05;10.60;;;9.70;;
357;SDS011;167;47.558;7.602;2023-12-29T08:12:32;10.47;;;9.20;;
357;SDS011;167;47.558;7.602;2023-12-29T08:15:03;11.37;;;10.27;;
357;SDS011;167;47.558;7.602;2023-12-29T08:17:30;12.23;;;11.23;;
357;SDS011;167;47.558;7.602;2023-12-29T08:19:56;11.13;;;10.03;;
357;SDS011;167;47.558;7.602;2023-12-29T08:22:22;12.13;;;11.13;;
357;SDS011;167;47.558;7.602;2023-12-29T08:24:48;29.63;;;26.50;;
357;SDS011;167;47.558;7.602;2023-12-29T08:27:14;10.90;;;9.80;;
357;SDS011;167;47.558;7.602;2023-12-29T08:29:48;10.80;;;9.80;;
357;SDS011;167;47.558;7.602;2023-12-29T08:32:13;11.43;;;10.20;;
357;SDS011;167;47.558;7.602;2023-12-29T08:34:40;11.50;;;10.50;;
357;SDS011;167;47.558;7.602;2023-12-29T08:37:06;10.97;;;9.97;;
357;SDS011;167;47.558;7.602;2023-12-29T08:39:32;11.70;;;10.70;;
357;SDS011;167;47.558;7.602;2023-12-29T08:41:58;10.37;;;9.47;;
357;SDS011;167;47.558;7.602;2023-12-29T08:44:24;10.70;;;9.80;;
357;SDS011;167;47.558;7.602;2023-12-29T08:46:50;9.23;;;8.53;;
357;SDS011;167;47.558;7.602;2023-12-29T08:49:15;10.43;;;9.43;;
357;SDS011;167;47.558;7.602;2023-12-29T08:51:41;10.13;;;9.23;;
357;SDS011;167;47.558;7.602;2023-12-29T08:54:08;9.70;;;8.90;;
357;SDS011;167;47.558;7.602;2023-12-29T08:56:34;10.00;;;9.00;;
357;SDS011;167;47.558;7.602;2023-12-29T08:59:00;9.60;;;8.80;;
357;SDS011;167;47.558;7.602;2023-12-29T09:01:26;9.87;;;9.03;;
357;SDS011;167;47.558;7.602;2023-12-29T09:03:52;9.83;;;9.03;;
357;SDS011;167;47.558;7.602;2023-12-29T09:06:18;9.77;;;8.97;;
357;SDS011;167;47.558;7.602;2023-12-29T09:08:45;10.67;;;9.70;;
357;SDS011;167;47.558;7.602;2023-12-29T09:11:10;9.10;;;8.33;;
357;SDS011;167;47.558;7.602;2023-12-29T09:13:36;9.73;;;8.83;;
357;SDS011;167;47.558;7.602;2023-12-29T09:16:02;9.30;;;8.67;;
357;SDS011;167;47.558;7.602;2023-12-29T09:18:28;9.23;;;8.60;;
357;SDS011;167;47.558;7.602;2023-12-29T09:20:54;9.80;;;9.00;;
357;SDS011;167;47.558;7.602;2023-12-29T09:23:20;10.13;;;9.33;;
357;SDS011;167;47.558;7.602;2023-12-29T09:25:47;9.20;;;8.50;;
357;SDS011;167;47.558;7.602;2023-12-29T09:28:13;9.23;;;8.53;;
357;SDS011;167;47.558;7.602;2023-12-29T09:30:39;8.93;;;8.13;;
357;SDS011;167;47.558;7.602;2023-12-29T09:33:04;9.70;;;9.00;;
357;SDS011;167;47.558;7.602;2023-12-29T09:35:30;9.53;;;8.83;;
357;SDS011;167;47.558;7.602;2023-12-29T09:37:57;9.97;;;9.07;;
357;SDS011;167;47.558;7.602;2023-12-29T09:40:24;9.00;;;8.40;;
357;SDS011;167;47.558;7.602;2023-12-29T09:42:51;8.03;;;7.43;;
357;SDS011;167;47.558;7.602;2023-12-29T09:45:19;7.67;;;7.17;;
357;SDS011;167;47.558;7.602;2023-12-29T09:47:48;7.77;;;7.23;;
357;SDS011;167;47.558;7.602;2023-12-29T09:50:16;7.93;;;7.40;;
357;SDS011;167;47.558;7.602;2023-12-29T09:52:43;8.00;;;7.40;;
357;SDS011;167;47.558;7.602;2023-12-29T09:55:10;8.20;;;7.60;;
357;SDS011;167;47.558;7.602;2023-12-29T09:57:39;8.70;;;8.03;;
357;SDS011;167;47.558;7.602;2023-12-29T10:00:10;7.40;;;6.93;;
357;SDS011;167;47.558;7.602;2023-12-29T10:02:37;8.23;;;7.63;;
357;SDS011;167;47.558;7.602;2023-12-29T10:05:03;9.07;;;8.37;;
357;SDS011;167;47.558;7.602;2023-12-29T10:07:31;7.53;;;7.03;;
357;SDS011;167;47.558;7.602;2023-12-29T10:09:57;7.90;;;7.23;;
357;SDS011;167;47.558;7.602;2023-12-29T10:12:30;8.93;;;8.33;;
357;SDS011;167;47.558;7.602;2023-12-29T10:17:28;8.10;;;7.50;;
357;SDS011;167;47.558;7.602;2023-12-29T10:20:05;8.57;;;8.07;;
357;SDS011;167;47.558;7.602;2023-12-29T10:22:36;9.40;;;8.70;;
357;SDS011;167;47.558;7.602;2023-12-29T10:25:05;8.70;;;8.10;;
357;SDS011;167;47.558;7.602;2023-12-29T10:27:34;9.33;;;8.77;;
357;SDS011;167;47.558;7.602;2023-12-29T10:30:00;9.00;;;8.40;;
357;SDS011;167;47.558;7.602;2023-12-29T10:32:26;8.50;;;7.90;;
357;SDS011;167;47.558;7.602;2023-12-29T10:35:29;9.47;;;8.70;;
357;SDS011;167;47.558;7.602;2023-12-29T10:37:47;7.93;;;7.33;;
357;SDS011;167;47.558;7.602;2023-12-29T10:40:19;7.87;;;7.17;;
357;SDS011;167;47.558;7.602;2023-12-29T10:42:51;8.70;;;8.10;;
357;SDS011;167;47.558;7.602;2023-12-29T10:45:18;8.40;;;7.80;;
357;SDS011;167;47.558;7.602;2023-12-29T10:47:44;8.37;;;7.67;;
357;SDS011;167;47.558;7.602;2023-12-29T10:50:10;7.93;;;7.40;;
357;SDS011;167;47.558;7.602;2023-12-29T10:52:36;4.37;;;4.13;;
357;SDS011;167;47.558;7.602;2023-12-29T10:55:09;3.37;;;3.17;;
357;SDS011;167;47.558;7.602;2023-12-29T10:57:36;4.30;;;4.00;;
357;SDS011;167;47.558;7.602;2023-12-29T11:00:02;3.13;;;2.93;;
357;SDS011;167;47.558;7.602;2023-12-29T11:02:29;2.37;;;2.27;;
357;SDS011;167;47.558;7.602;2023-12-29T11:05:01;0.80;;;0.80;;
357;SDS011;167;47.558;7.602;2023-12-29T11:07:36;0.63;;;0.63;;
357;SDS011;167;47.558;7.602;2023-12-29T11:10:02;0.63;;;0.63;;
357;SDS011;167;47.558;7.602;2023-12-29T11:12:29;0.80;;;0.80;;
357;SDS011;167;47.558;7.602;2023-12-29T11:14:56;0.80;;;0.80;;
357;SDS011;167;47.558;7.602;2023-12-29T11:17:22;0.87;;;0.87;;
357;SDS011;167;47.558;7.602;2023-12-29T11:19:48;0.70;;;0.70;;
357;SDS011;167;47.558;7.602;2023-12-29T11:22:16;0.80;;;0.80;;
357;SDS011;167;47.558;7.602;2023-12-29T11:24:45;0.67;;;0.67;;
357;SDS011;167;47.558;7.602;2023-12-29T11:27:11;1.23;;;1.20;;
357;SDS011;167;47.558;7.602;2023-12-29T11:29:38;1.00;;;1.00;;
357;SDS011;167;47.558;7.602;2023-12-29T11:32:06;1.00;;;1.00;;
357;SDS011;167;47.558;7.602;2023-12-29T11:34:35;0.67;;;0.67;;
357;SDS011;167;47.558;7.602;2023-12-29T11:39:55;0.80;;;0.80;;
357;SDS011;167;47.558;7.602;2023-12-29T11:42:27;0.60;;;0.60;;
357;SDS011;167;47.558;7.602;2023-12-29T11:44:55;0.70;;;0.70;;
357;SDS011;167;47.558;7.602;2023-12-29T11:47:34;0.63;;;0.63;;
357;SDS011;167;47.558;7.602;2023-12-29T11:50:00;0.60;;;0.60;;
357;SDS011;167;47.558;7.602;2023-12-29T11:52:33;0.70;;;0.70;;
357;SDS011;167;47.558;7.602;2023-12-29T11:55:13;0.57;;;0.57;;
357;SDS011;167;47.558;7.602;2023-12-29T11:57:45;0.70;;;0.70;;
357;SDS011;167;47.558;7.602;2023-12-29T12:00:11;0.83;;;0.83;;
357;SDS011;167;47.558;7.602;2023-12-29T12:02:38;0.60;;;0.60;;
357;SDS011;167;47.558;7.602;2023-12-29T12:05:05;0.77;;;0.77;;
357;SDS011;167;47.558;7.602;2023-12-29T12:12:58;0.70;;;0.70;;
357;SDS011;167;47.558;7.602;2023-12-29T12:17:54;1.00;;;1.00;;
357;SDS011;167;47.558;7.602;2023-12-29T12:20:21;1.00;;;1.00;;
357;SDS011;167;47.558;7.602;2023-12-29T12:22:51;1.03;;;1.03;;
357;SDS011;167;47.558;7.602;2023-12-29T12:25:23;1.47;;;1.40;;
357;SDS011;167;47.558;7.602;2023-12-29T12:27:53;1.57;;;1.50;;
357;SDS011;167;47.558;7.602;2023-12-29T12:30:19;1.30;;;1.20;;
357;SDS011;167;47.558;7.602;2023-12-29T12:32:45;1.30;;;1.30;;
357;SDS011;167;47.558;7.602;2023-12-29T12:35:15;1.50;;;1.50;;
357;SDS011;167;47.558;7.602;2023-12-29T12:37:41;1.33;;;1.30;;
357;SDS011;167;47.558;7.602;2023-12-29T12:40:07;1.47;;;1.47;;
357;SDS011;167;47.558;7.602;2023-12-29T12:42:38;2.20;;;1.70;;
357;SDS011;167;47.558;7.602;2023-12-29T12:45:16;1.60;;;1.50;;
357;SDS011;167;47.558;7.602;2023-12-29T12:47:55;1.30;;;1.30;;
357;SDS011;167;47.558;7.602;2023-12-29T12:50:25;1.30;;;1.30;;
357;SDS011;167;47.558;7.602;2023-12-29T12:52:51;1.13;;;1.03;;
357;SDS011;167;47.558;7.602;2023-12-29T12:55:17;1.13;;;1.13;;
357;SDS011;167;47.558;7.602;2023-12-29T12:57:44;1.47;;;1.37;;
357;SDS011;167;47.558;7.602;2023-12-29T13:00:11;1.53;;;1.53;;
357;SDS011;167;47.558;7.602;2023-12-29T13:02:37;1.80;;;1.70;;
357;SDS011;167;47.558;7.602;2023-12-29T13:05:03;1.00;;;1.00;;
357;SDS011;167;47.558;7.602;2023-12-29T13:07:33;1.37;;;1.27;;
357;SDS011;167;47.558;7.602;2023-12-29T13:09:59;1.23;;;1.23;;
357;SDS011;167;47.558;7.602;2023-12-29T13:12:26;1.63;;;1.53;;
357;SDS011;167;47.558;7.602;2023-12-29T13:14:52;1.50;;;1.50;;
357;SDS011;167;47.558;7.602;2023-12-29T13:17:18;1.70;;;1.60;;
357;SDS011;167;47.558;7.602;2023-12-29T13:19:54;1.60;;;1.60;;
357;SDS011;167;47.558;7.602;2023-12-29T13:22:22;1.40;;;1.40;;
357;SDS011;167;47.558;7.602;2023-12-29T13:24:48;1.93;;;1.83;;
357;SDS011;167;47.558;7.602;2023-12-29T13:27:14;1.80;;;1.80;;
357;SDS011;167;47.558;7.602;2023-12-29T13:29:40;1.90;;;1.80;;
357;SDS011;167;47.558;7.602;2023-12-29T13:32:23;1.30;;;1.30;;
357;SDS011;167;47.558;7.602;2023-12-29T13:37:24;1.57;;;1.47;;
357;SDS011;167;47.558;7.602;2023-12-29T13:39:57;1.20;;;1.10;;
357;SDS011;167;47.558;7.602;2023-12-29T13:42:26;1.50;;;1.43;;
357;SDS011;167;47.558;7.602;2023-12-29T13:44:54;1.20;;;1.20;;
357;SDS011;167;47.558;7.602;2023-12-29T13:47:21;1.00;;;1.00;;
357;SDS011;167;47.558;7.602;2023-12-29T13:49:47;1.20;;;1.20;;
357;SDS011;167;47.558;7.602;2023-12-29T13:52:13;1.30;;;1.30;;
357;SDS011;167;47.558;7.602;2023-12-29T13:54:41;1.30;;;1.30;;
357;SDS011;167;47.558;7.602;2023-12-29T13:57:10;1.23;;;1.23;;
357;SDS011;167;47.558;7.602;2023-12-29T13:59:37;1.30;;;1.30;;
357;SDS011;167;47.558;7.602;2023-12-29T14:02:20;1.70;;;1.60;;
357;SDS011;167;47.558;7.602;2023-12-29T14:04:48;1.80;;;1.70;;
357;SDS011;167;47.558;7.602;2023-12-29T14:07:14;1.70;;;1.63;;
357;SDS011;167;47.558;7.602;2023-12-29T14:09:40;1.30;;;1.30;;
357;SDS011;167;47.558;7.602;2023-12-29T14:12:06;2.00;;;1.90;;
357;SDS011;167;47.558;7.602;2023-12-29T14:14:32;1.77;;;1.67;;
357;SDS011;167;47.558;7.602;2023-12-29T14:16:59;1.90;;;1.90;;
357;SDS011;167;47.558;7.602;2023-12-29T14:19:25;1.83;;;1.73;;
357;SDS011;167;47.558;7.602;2023-12-29T14:21:54;1.90;;;1.80;;
357;SDS011;167;47.558;7.602;2023-12-29T14:24:20;2.00;;;1.90;;
357;SDS011;167;47.558;7.602;2023-12-29T14:29:19;2.50;;;2.37;;
357;SDS011;167;47.558;7.602;2023-12-29T14:31:45;1.90;;;1.80;;
357;SDS011;167;47.558;7.602;2023-12-29T14:34:12;2.40;;;2.30;;
357;SDS011;167;47.558;7.602;2023-12-29T14:36:39;2.27;;;2.17;;
357;SDS011;167;47.558;7.602;2023-12-29T14:39:06;2.30;;;2.10;;
357;SDS011;167;47.558;7.602;2023-12-29T14:41:32;2.53;;;2.43;;
357;SDS011;167;47.558;7.602;2023-12-29T14:43:58;2.17;;;2.07;;
357;SDS011;167;47.558;7.602;2023-12-29T14:46:25;2.40;;;2.30;;
357;SDS011;167;47.558;7.602;2023-12-29T14:48:51;2.47;;;2.37;;
357;SDS011;167;47.558;7.602;2023-12-29T14:51:17;2.40;;;2.30;;
357;SDS011;167;47.558;7.602;2023-12-29T14:53:44;2.53;;;2.43;;
357;SDS011;167;47.558;7.602;2023-12-29T14:56:10;2.97;;;2.77;;
357;SDS011;167;47.558;7.602;2023-12-29T14:58:36;2.63;;;2.43;;
357;SDS011;167;47.558;7.602;2023-12-29T15:01:02;2.93;;;2.67;;
357;SDS011;167;47.558;7.602;2023-12-29T15:03:28;3.10;;;3.00;;
357;SDS011;167;47.558;7.602;2023-12-29T15:05:56;3.47;;;2.47;;
357;SDS011;167;47.558;7.602;2023-12-29T15:08:22;3.10;;;2.87;;
357;SDS011;167;47.558;7.602;2023-12-29T15:10:48;2.50;;;2.40;;
357;SDS011;167;47.558;7.602;2023-12-29T15:13:14;2.53;;;2.43;;
357;SDS011;167;47.558;7.602;2023-12-29T15:15:41;2.60;;;2.50;;
357;SDS011;167;47.558;7.602;2023-12-29T15:18:07;3.50;;;3.20;;
357;SDS011;167;47.558;7.602;2023-12-29T15:20:33;2.73;;;2.63;;
357;SDS011;167;47.558;7.602;2023-12-29T15:22:59;3.30;;;3.10;;
357;SDS011;167;47.558;7.602;2023-12-29T15:25:27;2.70;;;2.50;;
357;SDS011;167;47.558;7.602;2023-12-29T15:27:53;2.40;;;2.30;;
357;SDS011;167;47.558;7.602;2023-12-29T15:30:19;2.40;;;2.30;;
357;SDS011;167;47.558;7.602;2023-12-29T15:32:45;2.37;;;2.27;;
357;SDS011;167;47.558;7.602;2023-12-29T15:35:11;1.30;;;1.30;;
357;SDS011;167;47.558;7.602;2023-12-29T15:37:37;1.90;;;1.90;;
357;SDS011;167;47.558;7.602;2023-12-29T15:40:04;0.90;;;0.90;;
357;SDS011;167;47.558;7.602;2023-12-29T15:42:30;0.97;;;0.97;;
357;SDS011;167;47.558;7.602;2023-12-29T15:44:56;0.90;;;0.80;;
357;SDS011;167;47.558;7.602;2023-12-29T15:47:22;1.20;;;1.20;;
357;SDS011;167;47.558;7.602;2023-12-29T15:49:48;1.00;;;1.00;;
357;SDS011;167;47.558;7.602;2023-12-29T15:52:14;1.10;;;1.10;;
357;SDS011;167;47.558;7.602;2023-12-29T15:54:40;0.90;;;0.90;;
357;SDS011;167;47.558;7.602;2023-12-29T15:57:06;1.23;;;1.20;;
357;SDS011;167;47.558;7.602;2023-12-29T15:59:36;0.60;;;0.60;;